Terminal Aerodrome Forecast
Issued by NWS Springfield, MO

Home | Current Version | Previous Version | Text Only | Print | Product List | Glossary On
Versions: 1 2 3 4 5 6 7 8 9 10 11 12 13 14 15 16 17 18 19 20 21
000
FTUS43 KSGF 021500 AAA
TAFSGF
TAF AMD
KSGF 021504Z 0215/0312 14007KT P6SM OVC015
     FM021700 14007KT P6SM BKN030
     FM021900 14007KT P6SM SCT040
     FM030000 14006KT P6SM BKN250=

USA.gov is the U.S. government's official web portal to all federal, state and local government web resources and services.